Time;durP1;ratioP1;P1;durP2;ratioP2;P2;SDS_P1;SDS_P2;PMS_P1;PMS_P2;Temp;Humidity;BMP_temperature;BMP_pressure;BME280_temperature;BME280_humidity;BME280_pressure;Samples;Min_cycle;Max_cycle;Signal;HPM_P1;HPM_P2
2024/04/14 00:00:13;;;;;;;2.20;2.00;;;18.10;99.90;;;;;;6525885;21;20762;-57
2024/04/14 00:02:45;;;;;;;3.10;2.30;;;18.10;99.90;;;;;;6525699;22;20516;-56
2024/04/14 00:05:12;;;;;;;3.13;2.17;;;18.10;99.90;;;;;;6520938;21;20841;-58
2024/04/14 00:07:40;;;;;;;1.80;1.60;;;18.10;99.90;;;;;;6526659;22;20500;-57
2024/04/14 00:10:07;;;;;;;2.90;2.60;;;18.10;99.90;;;;;;6526228;22;20471;-55
2024/04/14 00:12:35;;;;;;;2.37;2.07;;;18.10;99.90;;;;;;6526718;22;20515;-57
2024/04/14 00:15:01;;;;;;;2.33;2.10;;;18.10;99.90;;;;;;6520528;21;20468;-58
2024/04/14 00:17:30;;;;;;;2.77;1.80;;;18.10;99.90;;;;;;6526264;22;20537;-57
2024/04/14 00:20:00;;;;;;;5.67;2.20;;;18.10;99.90;;;;;;6522426;21;20992;-58
2024/04/14 00:22:28;;;;;;;4.90;2.97;;;18.10;99.90;;;;;;6524988;22;20837;-57
2024/04/14 00:24:55;;;;;;;4.47;2.80;;;18.10;99.90;;;;;;6519615;21;20512;-58
2024/04/14 00:27:23;;;;;;;9.10;3.33;;;18.10;99.90;;;;;;6526517;21;20754;-54
2024/04/14 00:29:49;;;;;;;7.07;3.80;;;18.10;99.90;;;;;;6523240;22;20519;-58
2024/04/14 00:32:18;;;;;;;3.90;2.93;;;18.10;99.90;;;;;;6526172;22;20457;-57
2024/04/14 00:34:44;;;;;;;5.63;2.90;;;18.10;99.90;;;;;;6520413;21;20771;-58
2024/04/14 00:37:15;;;;;;;4.70;2.20;;;18.10;99.90;;;;;;6526651;22;20518;-57
2024/04/14 00:39:41;;;;;;;3.10;1.90;;;18.10;99.90;;;;;;6526562;21;20512;-59
2024/04/14 00:42:10;;;;;;;3.67;2.37;;;18.00;99.90;;;;;;6527098;21;20448;-55
2024/04/14 00:44:36;;;;;;;16.80;9.57;;;18.10;99.90;;;;;;6520171;21;20968;-56
2024/04/14 00:47:09;;;;;;;7.47;4.80;;;18.10;99.90;;;;;;6526502;22;20497;-58
2024/04/14 00:49:37;;;;;;;8.97;4.23;;;18.10;99.90;;;;;;6527027;21;20926;-59
2024/04/14 00:52:07;;;;;;;3.93;2.10;;;18.00;99.90;;;;;;6527086;21;20495;-57
2024/04/14 00:54:37;;;;;;;5.70;2.80;;;18.00;99.90;;;;;;6520108;21;20781;-59
2024/04/14 00:57:09;;;;;;;11.80;6.53;;;18.00;99.90;;;;;;6527534;22;20464;-58
2024/04/14 00:59:36;;;;;;;5.17;3.57;;;18.00;99.90;;;;;;6527311;22;20453;-55
2024/04/14 01:02:05;;;;;;;8.60;5.43;;;18.00;99.90;;;;;;6527035;21;20456;-58
2024/04/14 01:04:31;;;;;;;4.57;2.77;;;18.00;99.90;;;;;;6519688;21;20460;-58
2024/04/14 01:07:00;;;;;;;4.90;2.57;;;18.00;99.90;;;;;;6526936;22;20579;-58
2024/04/14 01:09:26;;;;;;;6.57;2.50;;;18.00;99.90;;;;;;6526960;22;20456;-58
2024/04/14 01:11:58;;;;;;;3.13;2.37;;;18.00;99.90;;;;;;6526703;22;20509;-57
2024/04/14 01:14:23;;;;;;;3.87;2.40;;;18.00;99.90;;;;;;6520527;21;20465;-58
2024/04/14 01:16:52;;;;;;;2.50;1.90;;;18.00;99.90;;;;;;6526258;22;20501;-57
2024/04/14 01:19:18;;;;;;;4.50;1.97;;;17.90;99.90;;;;;;6526471;21;20456;-59
2024/04/14 01:21:47;;;;;;;2.13;1.90;;;17.90;99.90;;;;;;6526870;22;20630;-58
2024/04/14 01:24:13;;;;;;;2.10;1.90;;;17.90;99.90;;;;;;6520015;21;20468;-59
2024/04/14 01:26:47;;;;;;;3.50;2.60;;;17.90;99.90;;;;;;6527883;21;20504;-57
2024/04/14 01:29:13;;;;;;;4.47;2.67;;;17.90;99.90;;;;;;6526777;22;20456;-58
2024/04/14 01:31:41;;;;;;;3.60;2.33;;;17.80;99.90;;;;;;6525931;21;20457;-57
2024/04/14 01:34:07;;;;;;;3.80;2.33;;;17.80;99.90;;;;;;6518863;21;21012;-56
2024/04/14 01:36:36;;;;;;;2.67;2.30;;;17.80;99.90;;;;;;6526190;22;20453;-56
2024/04/14 01:39:02;;;;;;;4.07;2.17;;;17.80;99.90;;;;;;6526932;22;20453;-58
2024/04/14 01:41:30;;;;;;;3.07;1.90;;;17.70;99.90;;;;;;6525828;22;20456;-55
2024/04/14 01:43:59;;;;;;;3.00;2.03;;;17.70;99.90;;;;;;6519366;21;20465;-56
2024/04/14 01:46:27;;;;;;;2.80;2.43;;;17.70;99.90;;;;;;6526389;21;20464;-55
2024/04/14 01:48:53;;;;;;;3.23;2.30;;;17.60;99.90;;;;;;6526013;22;20444;-55
2024/04/14 01:51:22;;;;;;;2.13;1.83;;;17.70;99.90;;;;;;6525436;22;20534;-55
2024/04/14 01:56:26;;;;;;;4.40;2.07;;;17.60;99.90;;;;;;6588410;21;20578;-58
2024/04/14 01:58:52;;;;;;;2.70;1.97;;;17.60;99.90;;;;;;6629020;21;20950;-58
2024/04/14 02:01:23;;;;;;;3.47;2.10;;;17.60;99.90;;;;;;6629241;21;20495;-57
2024/04/14 02:03:49;;;;;;;4.63;2.30;;;17.60;99.90;;;;;;6613458;21;20467;-57
2024/04/14 02:06:18;;;;;;;4.30;2.27;;;17.60;99.90;;;;;;6576221;21;20459;-56
2024/04/14 02:08:44;;;;;;;7.30;2.90;;;17.60;99.90;;;;;;6577560;21;20779;-60
2024/04/14 02:11:12;;;;;;;2.60;2.17;;;17.50;99.90;;;;;;6578224;21;20451;-56
2024/04/14 02:13:38;;;;;;;2.67;2.47;;;17.50;99.90;;;;;;6574079;21;20470;-58
2024/04/14 02:16:08;;;;;;;2.33;2.00;;;17.50;99.90;;;;;;6575367;21;20536;-55
2024/04/14 02:18:37;;;;;;;2.53;2.00;;;17.50;99.90;;;;;;6578025;21;20451;-57
2024/04/14 02:21:05;;;;;;;2.90;2.17;;;17.50;99.90;;;;;;6576500;21;20507;-52
2024/04/14 02:23:37;;;;;;;4.63;2.40;;;17.50;99.90;;;;;;6574205;21;20507;-57
2024/04/14 02:26:05;;;;;;;3.80;2.40;;;17.50;99.90;;;;;;6575185;21;20556;-58
2024/04/14 02:28:31;;;;;;;3.60;2.50;;;17.50;99.90;;;;;;6577623;21;20770;-56
2024/04/14 02:31:01;;;;;;;3.33;2.13;;;17.40;99.90;;;;;;6577355;21;20537;-58
2024/04/14 02:33:27;;;;;;;3.03;2.50;;;17.50;99.90;;;;;;6569867;21;20494;-56
2024/04/14 02:36:00;;;;;;;3.70;2.03;;;17.40;99.90;;;;;;6522453;22;20830;-56
2024/04/14 02:38:26;;;;;;;3.10;2.13;;;17.40;99.90;;;;;;6525601;22;20460;-58
2024/04/14 02:40:59;;;;;;;2.63;2.27;;;17.40;99.90;;;;;;6524852;22;20461;-57
2024/04/14 02:43:26;;;;;;;2.63;2.43;;;17.30;99.90;;;;;;6520770;21;20694;-57
2024/04/14 02:45:54;;;;;;;4.13;2.60;;;17.40;99.90;;;;;;6521581;22;20457;-56
2024/04/14 02:48:20;;;;;;;4.20;2.80;;;17.40;99.90;;;;;;6525654;22;21077;-58
2024/04/14 02:50:49;;;;;;;4.73;2.97;;;17.40;99.90;;;;;;6525318;22;20760;-56
2024/04/14 02:53:17;;;;;;;4.30;3.90;;;17.40;99.90;;;;;;6521328;22;21005;-58
2024/04/14 02:55:46;;;;;;;3.13;2.30;;;17.40;99.90;;;;;;6521592;22;20456;-58
2024/04/14 02:58:12;;;;;;;3.40;2.60;;;17.50;99.90;;;;;;6523987;22;20793;-55
2024/04/14 03:00:41;;;;;;;3.60;2.00;;;17.50;99.90;;;;;;6523944;22;20884;-52
2024/04/14 03:03:07;;;;;;;3.37;2.77;;;17.50;99.90;;;;;;6522265;22;20970;-57
2024/04/14 03:05:35;;;;;;;3.13;2.20;;;17.60;99.90;;;;;;6522273;21;20452;-54
2024/04/14 03:08:04;;;;;;;2.47;2.20;;;17.60;99.90;;;;;;6525532;22;20573;-56
2024/04/14 03:10:35;;;;;;;5.10;3.20;;;17.60;99.90;;;;;;6525126;22;20708;-56
2024/04/14 03:13:03;;;;;;;6.00;2.50;;;17.60;99.90;;;;;;6524078;22;20452;-54
2024/04/14 03:15:31;;;;;;;3.10;2.30;;;17.60;99.90;;;;;;6519454;21;20555;-55
2024/04/14 03:17:57;;;;;;;2.93;2.67;;;17.60;99.90;;;;;;6524743;22;20496;-55
2024/04/14 03:20:26;;;;;;;3.33;2.60;;;17.70;99.90;;;;;;6524915;22;21043;-57
2024/04/14 03:22:52;;;;;;;4.73;4.33;;;17.70;99.90;;;;;;6525217;22;20441;-56
2024/04/14 03:25:20;;;;;;;4.90;2.93;;;17.70;99.90;;;;;;6518314;21;21017;-58
2024/04/14 03:27:49;;;;;;;4.70;3.00;;;17.70;99.90;;;;;;6525350;22;21021;-58
2024/04/14 03:30:17;;;;;;;4.57;2.80;;;17.80;99.90;;;;;;6525318;22;20508;-56
2024/04/14 03:32:43;;;;;;;3.07;2.80;;;17.80;99.90;;;;;;6525371;22;20524;-59
2024/04/14 03:35:12;;;;;;;3.90;2.27;;;17.80;99.90;;;;;;6519255;21;20563;-57
2024/04/14 03:37:42;;;;;;;3.70;2.80;;;17.90;99.90;;;;;;6526301;22;20225;-57
2024/04/14 03:40:12;;;;;;;4.83;2.90;;;17.90;99.90;;;;;;6525414;22;20448;-57
2024/04/14 03:42:40;;;;;;;3.60;2.70;;;18.00;99.90;;;;;;6526162;22;20497;-56
2024/04/14 03:45:12;;;;;;;3.40;2.70;;;18.00;99.90;;;;;;6520065;21;20486;-58
2024/04/14 03:47:40;;;;;;;3.53;3.13;;;18.00;99.90;;;;;;6525425;22;20456;-57
2024/04/14 03:50:09;;;;;;;3.13;2.83;;;18.10;99.90;;;;;;6525373;22;20504;-58
2024/04/14 03:52:35;;;;;;;3.47;3.17;;;18.00;99.90;;;;;;6525806;22;20505;-57
2024/04/14 03:55:04;;;;;;;5.43;2.53;;;18.00;99.90;;;;;;6518911;21;20461;-57
2024/04/14 03:57:30;;;;;;;3.93;2.50;;;18.10;99.90;;;;;;6525218;22;20460;-56
2024/04/14 03:59:59;;;;;;;4.40;3.30;;;18.10;99.90;;;;;;6525511;22;20512;-57
2024/04/14 04:02:27;;;;;;;4.60;3.70;;;18.10;99.90;;;;;;6525138;22;20805;-58
2024/04/14 04:04:56;;;;;;;4.47;2.70;;;18.00;99.90;;;;;;6518918;21;20520;-58
2024/04/14 04:07:22;;;;;;;8.23;3.37;;;18.00;99.90;;;;;;6525630;22;20993;-57
2024/04/14 04:09:52;;;;;;;3.13;2.83;;;18.00;99.90;;;;;;6524524;22;20456;-57
2024/04/14 04:12:19;;;;;;;5.23;3.30;;;17.90;99.90;;;;;;6525337;22;20460;-56
2024/04/14 04:14:47;;;;;;;5.50;2.33;;;17.90;99.90;;;;;;6518612;21;20476;-59
2024/04/14 04:17:13;;;;;;;3.50;2.47;;;17.90;99.90;;;;;;6525130;22;21013;-57
2024/04/14 04:19:44;;;;;;;6.53;3.37;;;17.90;99.90;;;;;;6525418;22;20756;-58
2024/04/14 04:22:10;;;;;;;5.10;3.57;;;17.80;99.90;;;;;;6525015;22;20508;-57
2024/04/14 04:24:39;;;;;;;5.87;3.53;;;17.80;99.90;;;;;;6519637;21;20528;-57
2024/04/14 04:27:05;;;;;;;3.53;3.07;;;17.80;99.90;;;;;;6525768;22;20503;-57
2024/04/14 04:29:34;;;;;;;5.90;3.13;;;17.80;99.90;;;;;;6526112;22;20456;-59
2024/04/14 04:32:00;;;;;;;3.70;3.27;;;17.70;99.90;;;;;;6526748;22;20461;-58
2024/04/14 04:34:29;;;;;;;5.03;3.50;;;17.70;99.90;;;;;;6520069;21;20993;-58
2024/04/14 04:36:57;;;;;;;6.37;3.50;;;17.70;99.90;;;;;;6526954;22;20456;-57
2024/04/14 04:39:26;;;;;;;5.60;2.80;;;17.70;99.90;;;;;;6526509;22;20476;-57
2024/04/14 04:41:52;;;;;;;6.10;3.33;;;17.70;99.90;;;;;;6525548;22;20507;-60
2024/04/14 04:44:20;;;;;;;4.83;3.37;;;17.60;99.90;;;;;;6520760;21;20461;-57
2024/04/14 04:46:46;;;;;;;3.93;2.97;;;17.60;99.90;;;;;;6528498;22;20255;-56
2024/04/14 04:49:15;;;;;;;6.93;3.27;;;17.60;99.90;;;;;;6526979;22;20453;-58
2024/04/14 04:51:41;;;;;;;6.87;3.77;;;17.60;99.90;;;;;;6527979;22;20264;-58
2024/04/14 04:54:12;;;;;;;5.10;3.43;;;17.50;99.90;;;;;;6522347;21;20926;-58
2024/04/14 04:56:38;;;;;;;7.93;3.57;;;17.50;99.90;;;;;;6528883;22;20806;-57
2024/04/14 04:59:06;;;;;;;4.80;3.87;;;17.50;99.90;;;;;;6528190;22;20456;-58
2024/04/14 05:01:32;;;;;;;3.83;3.30;;;17.50;99.90;;;;;;6527987;22;20452;-58
2024/04/14 05:04:01;;;;;;;6.87;3.80;;;17.50;99.90;;;;;;6520385;21;20504;-58
2024/04/14 05:06:27;;;;;;;6.60;3.90;;;17.50;99.90;;;;;;6526459;22;20461;-57
2024/04/14 05:08:55;;;;;;;10.70;2.33;;;17.40;99.90;;;;;;6525758;22;20456;-58
2024/04/14 05:11:24;;;;;;;4.10;2.93;;;17.50;99.90;;;;;;6526891;22;20449;-54
2024/04/14 05:13:53;;;;;;;4.20;2.90;;;17.50;99.90;;;;;;6520495;21;20689;-57
2024/04/14 05:16:20;;;;;;;3.40;2.50;;;17.40;99.90;;;;;;6526696;22;21006;-58
2024/04/14 05:18:48;;;;;;;7.73;2.70;;;17.40;99.90;;;;;;6526676;22;20555;-57
2024/04/14 05:21:14;;;;;;;3.33;2.43;;;17.50;99.90;;;;;;6526250;22;20469;-57
2024/04/14 05:23:43;;;;;;;7.00;2.33;;;17.40;99.90;;;;;;6521988;21;20571;-58
2024/04/14 05:26:09;;;;;;;5.00;2.70;;;17.40;99.90;;;;;;6524855;22;20225;-57
2024/04/14 05:28:40;;;;;;;4.90;2.17;;;17.40;99.90;;;;;;6526775;22;20513;-56
2024/04/14 05:31:06;;;;;;;2.90;1.80;;;17.40;99.90;;;;;;6528148;22;21280;-52
2024/04/14 05:33:34;;;;;;;6.20;2.47;;;17.20;99.90;;;;;;6523461;21;20456;-57
2024/04/14 05:36:01;;;;;;;5.00;2.30;;;17.10;99.90;;;;;;6524998;22;20539;-59
2024/04/14 05:38:31;;;;;;;3.10;2.57;;;17.10;99.90;;;;;;6526134;22;20457;-55
2024/04/14 05:40:57;;;;;;;3.20;2.23;;;17.20;99.90;;;;;;6526511;22;20821;-56
2024/04/14 05:43:26;;;;;;;7.50;3.33;;;17.20;99.90;;;;;;6522045;21;20791;-55
2024/04/14 05:45:54;;;;;;;3.57;2.10;;;17.20;99.90;;;;;;6524287;22;20766;-55
2024/04/14 05:48:23;;;;;;;3.07;1.97;;;17.20;99.90;;;;;;6526283;22;20822;-54
2024/04/14 05:50:49;;;;;;;8.20;2.33;;;17.30;99.90;;;;;;6526831;22;20456;-55
2024/04/14 05:53:18;;;;;;;3.33;2.40;;;17.30;99.90;;;;;;6522243;22;20453;-57
2024/04/14 05:55:44;;;;;;;4.60;2.00;;;17.30;99.90;;;;;;6523395;22;20762;-57
2024/04/14 05:58:13;;;;;;;2.80;2.43;;;17.20;99.90;;;;;;6526014;22;20529;-57
2024/04/14 06:00:39;;;;;;;5.70;2.50;;;17.10;99.90;;;;;;6525950;22;20521;-56
2024/04/14 06:03:10;;;;;;;4.60;2.07;;;17.00;99.90;;;;;;6525417;22;20468;-54
2024/04/14 06:05:36;;;;;;;4.93;2.17;;;17.00;99.90;;;;;;6521945;21;20509;-55
2024/04/14 06:08:05;;;;;;;5.30;2.53;;;17.00;99.90;;;;;;6526612;22;20960;-57
2024/04/14 06:10:31;;;;;;;3.73;2.53;;;17.00;99.90;;;;;;6525974;22;20501;-56
2024/04/14 06:13:00;;;;;;;5.80;1.90;;;17.00;99.90;;;;;;6527094;22;21004;-57
2024/04/14 06:15:26;;;;;;;6.03;2.30;;;16.90;99.90;;;;;;6521157;21;20471;-57
2024/04/14 06:17:54;;;;;;;2.87;2.00;;;16.80;99.90;;;;;;6526299;22;20504;-56
2024/04/14 06:20:23;;;;;;;2.60;1.90;;;16.90;99.90;;;;;;6526253;22;20456;-58
2024/04/14 06:22:51;;;;;;;4.80;2.17;;;17.00;99.90;;;;;;6526071;22;20505;-56
2024/04/14 06:25:17;;;;;;;2.30;1.60;;;17.00;99.90;;;;;;6523488;21;20511;-56
2024/04/14 06:27:46;;;;;;;3.80;2.37;;;17.10;99.90;;;;;;6524109;22;20780;-57
2024/04/14 06:30:12;;;;;;;4.50;2.27;;;17.10;99.90;;;;;;6524757;22;20572;-57
2024/04/14 06:32:41;;;;;;;2.90;2.30;;;17.10;99.90;;;;;;6525766;22;21008;-58
2024/04/14 06:35:07;;;;;;;4.40;2.80;;;17.20;99.90;;;;;;6517811;21;20456;-57
2024/04/14 06:37:38;;;;;;;4.10;2.23;;;17.20;99.90;;;;;;6524599;22;20573;-57
2024/04/14 06:40:06;;;;;;;3.73;2.20;;;17.30;99.90;;;;;;6525199;22;20452;-57
2024/04/14 06:42:34;;;;;;;4.40;2.50;;;17.20;99.90;;;;;;6525612;22;20507;-58
2024/04/14 06:45:00;;;;;;;7.73;2.70;;;17.10;99.90;;;;;;6517255;21;20460;-58
2024/04/14 06:47:29;;;;;;;4.90;2.47;;;17.00;99.90;;;;;;6524404;22;20512;-56
2024/04/14 06:49:55;;;;;;;2.70;1.93;;;17.00;99.90;;;;;;6525765;22;20457;-56
2024/04/14 06:52:23;;;;;;;3.77;2.40;;;17.00;99.90;;;;;;6524931;22;20508;-59
2024/04/14 06:54:52;;;;;;;7.23;2.20;;;17.00;99.90;;;;;;6517921;21;20977;-59
2024/04/14 06:57:20;;;;;;;3.30;2.10;;;17.00;99.90;;;;;;6523434;22;20491;-58
2024/04/14 06:59:46;;;;;;;2.90;1.90;;;17.00;99.90;;;;;;6525547;22;20456;-59
2024/04/14 07:02:15;;;;;;;2.57;1.73;;;17.10;99.90;;;;;;6524913;22;20498;-59
2024/04/14 07:04:41;;;;;;;3.70;2.37;;;17.10;99.90;;;;;;6519205;21;20469;-56
2024/04/14 07:07:09;;;;;;;4.73;2.33;;;17.10;99.90;;;;;;6525819;22;20818;-59
2024/04/14 07:09:35;;;;;;;4.70;2.40;;;17.20;99.90;;;;;;6525971;22;20452;-57
2024/04/14 07:12:07;;;;;;;5.83;2.47;;;17.30;99.90;;;;;;6524734;22;20549;-58
2024/04/14 07:14:36;;;;;;;8.70;2.50;;;17.30;99.90;;;;;;6519382;21;20469;-54
2024/04/14 07:17:05;;;;;;;6.87;2.27;;;17.20;99.90;;;;;;6525967;22;20531;-57
2024/04/14 07:19:31;;;;;;;4.40;2.00;;;17.10;99.90;;;;;;6525250;22;20452;-54
2024/04/14 07:22:02;;;;;;;5.10;2.30;;;17.00;99.90;;;;;;6525073;22;20845;-57
2024/04/14 07:24:28;;;;;;;5.63;2.20;;;17.00;99.90;;;;;;6518761;21;20472;-60
2024/04/14 07:26:57;;;;;;;3.57;1.93;;;17.00;99.90;;;;;;6524174;22;20544;-56
2024/04/14 07:29:26;;;;;;;3.13;2.60;;;17.10;99.90;;;;;;6525751;22;20807;-56
2024/04/14 07:31:54;;;;;;;3.03;1.70;;;17.10;99.90;;;;;;6523538;22;20509;-57
2024/04/14 07:34:20;;;;;;;4.60;2.63;;;17.10;99.90;;;;;;6520002;21;20516;-57
2024/04/14 07:39:24;;;;;;;1.53;1.30;;;17.20;99.90;;;;;;6584025;21;20509;-64
2024/04/14 07:41:50;;;;;;;3.47;1.40;;;17.20;99.90;;;;;;6628702;21;20820;-65
2024/04/14 07:44:18;;;;;;;2.77;1.53;;;17.20;99.90;;;;;;6598761;21;20519;-66
2024/04/14 07:46:47;;;;;;;3.10;1.63;;;17.20;99.90;;;;;;6574330;21;20220;-64
2024/04/14 07:49:15;;;;;;;1.87;1.50;;;17.20;99.90;;;;;;6573340;21;20518;-64
2024/04/14 07:51:41;;;;;;;3.43;1.70;;;17.20;99.90;;;;;;6576016;21;20760;-68
2024/04/14 07:54:10;;;;;;;4.30;1.70;;;17.20;99.90;;;;;;6569878;21;21025;-66
2024/04/14 07:56:37;;;;;;;4.20;1.57;;;17.30;99.90;;;;;;6574475;21;20455;-71
2024/04/14 07:59:06;;;;;;;3.50;1.60;;;17.40;99.90;;;;;;6575791;21;20529;-65
2024/04/14 08:01:32;;;;;;;3.13;1.70;;;17.50;99.90;;;;;;6573679;21;20459;-66
2024/04/14 08:04:03;;;;;;;1.97;1.60;;;17.60;99.90;;;;;;6565816;21;20542;-69
2024/04/14 08:06:29;;;;;;;7.00;1.87;;;17.70;99.90;;;;;;6574189;21;20467;-68
2024/04/14 08:08:58;;;;;;;8.13;2.40;;;17.80;99.90;;;;;;6573498;21;20567;-69
2024/04/14 08:11:24;;;;;;;9.37;3.60;;;17.90;99.90;;;;;;6572030;21;20980;-68
2024/04/14 08:13:53;;;;;;;2.00;1.60;;;17.80;99.90;;;;;;6573394;21;20462;-66
2024/04/14 08:16:19;;;;;;;2.87;2.07;;;17.90;99.90;;;;;;6576247;21;20456;-67
2024/04/14 08:18:50;;;;;;;1.60;1.30;;;18.00;99.90;;;;;;6576775;21;20493;-68
2024/04/14 08:21:23;;;;;;;3.30;1.60;;;18.30;99.90;;;;;;6578612;21;20501;-65
2024/04/14 08:23:53;;;;;;;7.13;2.03;;;18.40;99.90;;;;;;6578342;21;20467;-65
2024/04/14 08:26:19;;;;;;;2.20;1.40;;;18.40;99.90;;;;;;6578388;21;20446;-63
2024/04/14 08:28:48;;;;;;;2.90;1.60;;;18.20;99.90;;;;;;6579174;21;20451;-68
2024/04/14 08:31:13;;;;;;;5.47;1.80;;;18.20;99.90;;;;;;6578077;21;20570;-69
2024/04/14 08:33:42;;;;;;;4.20;1.67;;;18.10;99.90;;;;;;6576516;21;20863;-69
2024/04/14 08:36:09;;;;;;;2.17;1.53;;;18.00;99.90;;;;;;6576659;21;20440;-68
2024/04/14 08:38:40;;;;;;;9.60;1.83;;;17.90;99.90;;;;;;6578386;21;20944;-68
2024/04/14 08:41:06;;;;;;;4.50;1.80;;;18.20;99.90;;;;;;6578338;21;20471;-73
2024/04/14 08:43:34;;;;;;;2.03;1.17;;;18.40;99.90;;;;;;6578867;21;20439;-68
2024/04/14 08:46:01;;;;;;;3.40;1.50;;;18.40;99.90;;;;;;6579060;21;20500;-71
2024/04/14 08:48:32;;;;;;;2.10;0.97;;;18.20;99.90;;;;;;6579066;21;20771;-66
2024/04/14 08:50:59;;;;;;;4.57;1.67;;;18.20;99.90;;;;;;6578536;21;20510;-65
2024/04/14 08:53:30;;;;;;;1.87;1.40;;;18.30;99.90;;;;;;6579003;21;20455;-65
2024/04/14 08:55:59;;;;;;;12.57;7.43;;;18.60;99.90;;;;;;6578923;21;20573;-65
2024/04/14 08:58:31;;;;;;;4.13;1.53;;;19.30;96.80;;;;;;6579291;21;20451;-66
2024/04/14 09:01:01;;;;;;;5.67;1.30;;;19.40;95.10;;;;;;6577873;21;20764;-65
2024/04/14 09:03:33;;;;;;;2.77;1.13;;;19.60;94.20;;;;;;6577398;21;20448;-68
2024/04/14 09:06:02;;;;;;;3.10;1.23;;;19.50;94.60;;;;;;6579068;21;20894;-65
2024/04/14 09:08:30;;;;;;;1.50;1.00;;;19.30;94.00;;;;;;6579122;21;20511;-65
2024/04/14 09:10:59;;;;;;;6.20;1.33;;;19.00;95.10;;;;;;6579062;21;20859;-69
2024/04/14 09:19:39;;;;;;;1.60;1.07;;;19.70;94.80;;;;;;6566845;21;20913;-67
2024/04/14 09:22:05;;;;;;;3.30;0.97;;;19.60;95.40;;;;;;6579429;21;20975;-67
2024/04/14 09:24:33;;;;;;;2.73;1.10;;;19.30;95.60;;;;;;6549185;21;20529;-65
2024/04/14 09:27:04;;;;;;;2.03;1.70;;;19.40;95.60;;;;;;6526416;22;20508;-65
2024/04/14 09:29:32;;;;;;;1.00;0.80;;;19.40;95.80;;;;;;6525896;22;20505;-66
2024/04/14 09:31:58;;;;;;;3.73;1.47;;;19.10;94.60;;;;;;6526022;22;20457;-65
2024/04/14 09:34:29;;;;;;;15.00;4.97;;;19.20;94.70;;;;;;6525704;21;20468;-66
2024/04/14 09:36:55;;;;;;;2.70;1.00;;;19.00;94.60;;;;;;6522038;22;20524;-65
2024/04/14 09:39:23;;;;;;;3.87;1.23;;;18.70;94.70;;;;;;6522219;22;20526;-65
2024/04/14 09:41:50;;;;;;;3.17;1.20;;;18.50;95.20;;;;;;6522392;22;20456;-66
2024/04/14 09:44:22;;;;;;;2.50;1.60;;;18.70;94.30;;;;;;6521154;21;20514;-62
2024/04/14 09:46:49;;;;;;;1.77;1.00;;;18.70;91.80;;;;;;6522645;22;20461;-63
2024/04/14 09:49:19;;;;;;;3.93;1.33;;;18.80;92.60;;;;;;6521653;22;20460;-64
2024/04/14 09:51:49;;;;;;;1.67;0.90;;;18.90;92.20;;;;;;6522140;22;20445;-65
2024/04/14 09:54:20;;;;;;;2.20;1.10;;;18.80;90.90;;;;;;6525076;21;20703;-65
2024/04/14 09:56:46;;;;;;;3.93;1.30;;;18.50;88.70;;;;;;6523522;22;20465;-66
2024/04/14 09:59:14;;;;;;;3.17;1.43;;;18.30;90.70;;;;;;6523331;22;20511;-63
2024/04/14 10:01:45;;;;;;;4.07;1.20;;;18.20;93.70;;;;;;6523900;22;20496;-64
2024/04/14 10:04:15;;;;;;;3.00;1.33;;;18.50;94.10;;;;;;6524237;21;20527;-64
2024/04/14 10:06:42;;;;;;;1.63;1.27;;;18.30;95.40;;;;;;6522715;22;20452;-64
2024/04/14 10:09:14;;;;;;;2.40;1.17;;;18.60;95.80;;;;;;6524709;22;20989;-64
2024/04/14 10:11:43;;;;;;;3.90;1.70;;;18.70;94.80;;;;;;6524413;22;20445;-67
2024/04/14 10:14:15;;;;;;;4.10;0.93;;;18.50;93.30;;;;;;6522984;21;20464;-65
2024/04/14 10:16:54;;;;;;;1.97;1.00;;;18.40;93.50;;;;;;6524532;22;20986;-62
2024/04/14 10:19:23;;;;;;;1.77;1.13;;;18.40;94.20;;;;;;6523083;22;20517;-66
2024/04/14 10:21:59;;;;;;;3.87;1.97;;;18.40;93.60;;;;;;6523907;22;20469;-66
2024/04/14 10:24:32;;;;;;;6.93;1.30;;;18.30;91.70;;;;;;6520799;21;20968;-63
2024/04/14 10:27:07;;;;;;;2.63;1.47;;;17.80;92.00;;;;;;6523793;22;20527;-65
2024/04/14 10:29:36;;;;;;;2.70;1.27;;;17.50;93.60;;;;;;6524172;22;20773;-65
2024/04/14 10:32:05;;;;;;;3.67;1.10;;;17.50;93.90;;;;;;6524653;22;20492;-65
2024/04/14 10:34:34;;;;;;;10.80;1.30;;;17.60;94.00;;;;;;6524252;21;20512;-64
2024/04/14 10:37:00;;;;;;;1.40;0.90;;;17.50;92.30;;;;;;6524833;22;20568;-66
2024/04/14 10:39:31;;;;;;;5.37;1.33;;;17.40;90.80;;;;;;6524740;22;20453;-64
2024/04/14 10:41:57;;;;;;;4.13;1.20;;;17.40;90.50;;;;;;6524200;22;20512;-64
2024/04/14 10:44:25;;;;;;;3.43;1.20;;;17.40;88.30;;;;;;6524280;21;20464;-63
2024/04/14 10:46:51;;;;;;;2.33;1.10;;;17.40;86.10;;;;;;6524548;22;20501;-62
2024/04/14 10:49:23;;;;;;;2.23;1.20;;;17.30;83.60;;;;;;6524486;22;20955;-65
2024/04/14 10:51:48;;;;;;;6.50;1.03;;;17.40;82.60;;;;;;6524218;22;20513;-66
2024/04/14 10:54:17;;;;;;;3.50;1.13;;;17.40;81.70;;;;;;6523783;21;20473;-64
2024/04/14 10:56:43;;;;;;;3.63;1.83;;;17.30;83.90;;;;;;6524276;22;20508;-66
2024/04/14 10:59:12;;;;;;;1.97;1.30;;;17.20;83.50;;;;;;6525372;22;20541;-66
2024/04/14 11:01:38;;;;;;;2.67;1.60;;;17.20;84.20;;;;;;6524912;22;20504;-66
2024/04/14 11:04:14;;;;;;;4.50;1.37;;;17.40;84.70;;;;;;6524126;21;20587;-65
2024/04/14 11:06:44;;;;;;;3.33;1.37;;;17.50;84.40;;;;;;6525282;22;20448;-65
2024/04/14 11:09:13;;;;;;;2.00;1.20;;;17.50;83.50;;;;;;6524920;22;20513;-65
2024/04/14 11:11:40;;;;;;;6.70;1.50;;;17.70;82.90;;;;;;6524689;22;20878;-65
2024/04/14 11:14:08;;;;;;;2.03;1.63;;;17.60;82.20;;;;;;6523543;21;20464;-65
2024/04/14 11:16:34;;;;;;;1.87;1.30;;;17.50;98.30;;;;;;6524967;22;20512;-67
2024/04/14 11:19:03;;;;;;;2.03;1.20;;;17.60;84.30;;;;;;6524614;22;20452;-67
2024/04/14 11:21:30;;;;;;;4.70;1.10;;;17.60;83.80;;;;;;6524295;22;20501;-67
2024/04/14 11:24:01;;;;;;;1.90;1.33;;;17.50;84.60;;;;;;6523560;21;20505;-66
2024/04/14 11:26:27;;;;;;;3.20;1.77;;;17.70;82.80;;;;;;6524913;22;20448;-65
2024/04/14 11:28:56;;;;;;;1.20;1.03;;;17.50;83.50;;;;;;6521425;22;20565;-66
2024/04/14 11:31:23;;;;;;;3.53;1.77;;;17.60;83.40;;;;;;6522721;22;20636;-66
2024/04/14 11:33:55;;;;;;;5.60;1.37;;;17.70;83.60;;;;;;6524830;21;20476;-67
2024/04/14 11:36:21;;;;;;;5.27;3.10;;;17.90;84.10;;;;;;6526282;22;20444;-67
2024/04/14 11:38:50;;;;;;;6.47;1.90;;;18.00;82.20;;;;;;6526708;22;20508;-67
2024/04/14 11:41:18;;;;;;;2.50;1.30;;;18.00;80.40;;;;;;6526770;22;20588;-66
2024/04/14 11:43:44;;;;;;;1.90;1.07;;;18.00;82.10;;;;;;6526985;21;20564;-66
2024/04/14 11:46:13;;;;;;;7.10;3.77;;;18.10;82.50;;;;;;6527303;22;20504;-66
2024/04/14 11:48:39;;;;;;;7.27;5.10;;;18.10;80.70;;;;;;6527302;22;20456;-66
2024/04/14 11:51:08;;;;;;;11.80;7.03;;;18.30;80.60;;;;;;6526730;22;21033;-67
2024/04/14 11:53:33;;;;;;;3.10;1.60;;;18.30;73.00;;;;;;6527525;21;20989;-66
2024/04/14 11:56:02;;;;;;;4.43;1.40;;;18.20;67.40;;;;;;6529062;22;20452;-66
2024/04/14 11:58:30;;;;;;;2.00;1.07;;;18.00;64.10;;;;;;6529355;22;20460;-65
2024/04/14 12:00:59;;;;;;;2.53;0.90;;;18.10;64.70;;;;;;6528056;22;20533;-66
2024/04/14 12:03:25;;;;;;;1.30;1.10;;;18.00;63.50;;;;;;6527417;21;20497;-66
2024/04/14 12:05:54;;;;;;;6.80;1.80;;;17.90;64.90;;;;;;6526882;22;21024;-67
2024/04/14 12:08:20;;;;;;;2.63;1.30;;;18.00;66.40;;;;;;6527754;22;20452;-67
2024/04/14 12:10:48;;;;;;;4.50;0.90;;;18.10;66.70;;;;;;6527342;22;20460;-66
2024/04/14 12:13:15;;;;;;;3.63;1.37;;;18.00;66.30;;;;;;6527153;22;20495;-67
2024/04/14 12:15:48;;;;;;;6.97;1.40;;;18.00;66.20;;;;;;6527067;21;20468;-67
2024/04/14 12:18:14;;;;;;;4.43;1.60;;;17.90;67.20;;;;;;6527054;22;20464;-66
2024/04/14 12:20:43;;;;;;;2.03;1.73;;;18.00;67.00;;;;;;6527651;22;20495;-66
2024/04/14 12:23:09;;;;;;;3.03;1.20;;;18.00;68.30;;;;;;6527489;22;20457;-66
2024/04/14 12:25:37;;;;;;;1.50;0.90;;;18.00;66.50;;;;;;6526435;21;20912;-67
2024/04/14 12:28:04;;;;;;;1.33;0.90;;;17.90;66.70;;;;;;6527602;22;20456;-66
2024/04/14 12:30:35;;;;;;;3.27;1.50;;;18.10;68.20;;;;;;6527203;22;20541;-66
2024/04/14 12:33:04;;;;;;;2.13;1.60;;;18.30;68.40;;;;;;6527079;22;21028;-67
2024/04/14 12:35:33;;;;;;;4.40;1.87;;;18.30;67.60;;;;;;6527191;21;20506;-66
2024/04/14 12:37:59;;;;;;;3.30;1.10;;;18.30;67.90;;;;;;6527406;22;20737;-68
2024/04/14 12:40:27;;;;;;;2.23;1.20;;;18.10;69.50;;;;;;6526498;22;20452;-68
2024/04/14 12:42:54;;;;;;;5.70;1.00;;;18.20;66.10;;;;;;6527046;22;20448;-66
2024/04/14 12:45:23;;;;;;;5.10;1.40;;;18.20;64.60;;;;;;6525855;21;20523;-66
2024/04/14 12:47:49;;;;;;;2.77;1.30;;;18.20;60.80;;;;;;6526545;22;20457;-66
2024/04/14 12:50:20;;;;;;;5.17;1.50;;;18.10;59.00;;;;;;6526932;22;20516;-66
2024/04/14 12:52:46;;;;;;;1.37;0.90;;;17.90;59.10;;;;;;6526851;22;20464;-65
2024/04/14 12:55:15;;;;;;;4.37;1.40;;;17.80;59.40;;;;;;6526043;21;20516;-66
2024/04/14 12:57:41;;;;;;;3.33;1.10;;;17.70;59.60;;;;;;6526697;22;20819;-67
2024/04/14 13:00:10;;;;;;;3.10;1.40;;;17.60;59.60;;;;;;6526882;22;21002;-65